sensor_id;sensor_type;location;lat;lon;timestamp;P1;durP1;ratioP1;P2;durP2;ratioP2
21303;SDS011;30547;52.384;9.744;2022-07-23T00:01:46;5.15;;;3.88;;
21303;SDS011;30547;52.384;9.744;2022-07-23T00:04:18;5.07;;;3.72;;
21303;SDS011;30547;52.384;9.744;2022-07-23T00:06:44;5.63;;;3.80;;
21303;SDS011;30547;52.384;9.744;2022-07-23T00:09:12;6.35;;;4.00;;
21303;SDS011;30547;52.384;9.744;2022-07-23T00:11:39;4.80;;;3.60;;
21303;SDS011;30547;52.384;9.744;2022-07-23T00:14:08;6.65;;;3.80;;
21303;SDS011;30547;52.384;9.744;2022-07-23T00:16:37;6.90;;;4.20;;
21303;SDS011;30547;52.384;9.744;2022-07-23T00:19:05;6.47;;;4.38;;
21303;SDS011;30547;52.384;9.744;2022-07-23T00:21:33;5.65;;;4.25;;
21303;SDS011;30547;52.384;9.744;2022-07-23T00:24:00;6.50;;;4.30;;
21303;SDS011;30547;52.384;9.744;2022-07-23T00:26:25;4.87;;;4.10;;
21303;SDS011;30547;52.384;9.744;2022-07-23T00:28:53;4.90;;;4.00;;
21303;SDS011;30547;52.384;9.744;2022-07-23T00:31:21;5.97;;;4.32;;
21303;SDS011;30547;52.384;9.744;2022-07-23T00:33:47;6.78;;;4.43;;
21303;SDS011;30547;52.384;9.744;2022-07-23T00:36:12;5.70;;;4.20;;
21303;SDS011;30547;52.384;9.744;2022-07-23T00:38:38;7.00;;;4.10;;
21303;SDS011;30547;52.384;9.744;2022-07-23T00:41:03;5.40;;;4.00;;
21303;SDS011;30547;52.384;9.744;2022-07-23T00:43:29;6.03;;;4.25;;
21303;SDS011;30547;52.384;9.744;2022-07-23T00:45:54;6.32;;;3.88;;
21303;SDS011;30547;52.384;9.744;2022-07-23T00:48:20;5.80;;;4.33;;
21303;SDS011;30547;52.384;9.744;2022-07-23T00:50:46;5.88;;;4.28;;
21303;SDS011;30547;52.384;9.744;2022-07-23T00:53:12;5.45;;;4.50;;
21303;SDS011;30547;52.384;9.744;2022-07-23T00:55:40;5.22;;;4.03;;
21303;SDS011;30547;52.384;9.744;2022-07-23T00:58:06;5.57;;;4.22;;
21303;SDS011;30547;52.384;9.744;2022-07-23T01:00:34;4.78;;;4.18;;
21303;SDS011;30547;52.384;9.744;2022-07-23T01:03:01;7.73;;;4.60;;
21303;SDS011;30547;52.384;9.744;2022-07-23T01:05:29;6.32;;;4.50;;
21303;SDS011;30547;52.384;9.744;2022-07-23T01:07:55;6.00;;;4.40;;
21303;SDS011;30547;52.384;9.744;2022-07-23T01:10:23;5.50;;;4.03;;
21303;SDS011;30547;52.384;9.744;2022-07-23T01:13:05;7.85;;;4.55;;
21303;SDS011;30547;52.384;9.744;2022-07-23T01:15:36;4.57;;;4.00;;
21303;SDS011;30547;52.384;9.744;2022-07-23T01:18:02;6.20;;;4.30;;
21303;SDS011;30547;52.384;9.744;2022-07-23T01:20:29;5.57;;;4.32;;
21303;SDS011;30547;52.384;9.744;2022-07-23T01:22:55;6.65;;;4.20;;
21303;SDS011;30547;52.384;9.744;2022-07-23T01:25:21;5.07;;;4.10;;
21303;SDS011;30547;52.384;9.744;2022-07-23T01:27:47;6.50;;;4.57;;
21303;SDS011;30547;52.384;9.744;2022-07-23T01:30:18;6.33;;;4.47;;
21303;SDS011;30547;52.384;9.744;2022-07-23T01:32:44;6.72;;;4.13;;
21303;SDS011;30547;52.384;9.744;2022-07-23T01:35:10;5.33;;;4.30;;
21303;SDS011;30547;52.384;9.744;2022-07-23T01:37:36;5.55;;;4.10;;
21303;SDS011;30547;52.384;9.744;2022-07-23T01:40:02;7.60;;;4.40;;
21303;SDS011;30547;52.384;9.744;2022-07-23T01:42:29;5.75;;;4.20;;
21303;SDS011;30547;52.384;9.744;2022-07-23T01:44:55;8.25;;;4.30;;
21303;SDS011;30547;52.384;9.744;2022-07-23T01:47:22;5.15;;;4.10;;
21303;SDS011;30547;52.384;9.744;2022-07-23T01:49:48;7.43;;;4.40;;
21303;SDS011;30547;52.384;9.744;2022-07-23T01:52:13;6.22;;;4.25;;
21303;SDS011;30547;52.384;9.744;2022-07-23T01:54:39;7.45;;;4.45;;
21303;SDS011;30547;52.384;9.744;2022-07-23T01:57:06;6.80;;;4.20;;
21303;SDS011;30547;52.384;9.744;2022-07-23T01:59:32;4.72;;;4.15;;
21303;SDS011;30547;52.384;9.744;2022-07-23T02:02:00;5.60;;;4.35;;
21303;SDS011;30547;52.384;9.744;2022-07-23T02:04:28;4.80;;;3.93;;
21303;SDS011;30547;52.384;9.744;2022-07-23T02:06:54;7.00;;;4.55;;
21303;SDS011;30547;52.384;9.744;2022-07-23T02:09:27;5.88;;;4.07;;
21303;SDS011;30547;52.384;9.744;2022-07-23T02:11:55;6.80;;;4.47;;
21303;SDS011;30547;52.384;9.744;2022-07-23T02:14:22;5.30;;;4.33;;
21303;SDS011;30547;52.384;9.744;2022-07-23T02:16:48;5.15;;;4.40;;
21303;SDS011;30547;52.384;9.744;2022-07-23T02:19:15;5.70;;;4.10;;
21303;SDS011;30547;52.384;9.744;2022-07-23T02:21:42;6.93;;;4.10;;
21303;SDS011;30547;52.384;9.744;2022-07-23T02:24:09;4.50;;;3.90;;
21303;SDS011;30547;52.384;9.744;2022-07-23T02:26:36;4.25;;;3.78;;
21303;SDS011;30547;52.384;9.744;2022-07-23T02:29:03;6.43;;;4.32;;
21303;SDS011;30547;52.384;9.744;2022-07-23T02:31:29;5.63;;;4.60;;
21303;SDS011;30547;52.384;9.744;2022-07-23T02:33:55;5.23;;;4.07;;
21303;SDS011;30547;52.384;9.744;2022-07-23T02:36:25;6.53;;;4.47;;
21303;SDS011;30547;52.384;9.744;2022-07-23T02:38:52;5.22;;;4.30;;
21303;SDS011;30547;52.384;9.744;2022-07-23T02:41:17;6.77;;;4.63;;
21303;SDS011;30547;52.384;9.744;2022-07-23T02:43:43;5.85;;;4.57;;
21303;SDS011;30547;52.384;9.744;2022-07-23T02:46:08;6.93;;;4.53;;
21303;SDS011;30547;52.384;9.744;2022-07-23T02:48:35;5.33;;;4.30;;
21303;SDS011;30547;52.384;9.744;2022-07-23T02:51:02;5.68;;;4.30;;
21303;SDS011;30547;52.384;9.744;2022-07-23T02:53:29;6.17;;;4.40;;
21303;SDS011;30547;52.384;9.744;2022-07-23T02:55:56;6.18;;;4.55;;
21303;SDS011;30547;52.384;9.744;2022-07-23T02:58:22;7.30;;;4.25;;
21303;SDS011;30547;52.384;9.744;2022-07-23T03:00:53;6.53;;;4.57;;
21303;SDS011;30547;52.384;9.744;2022-07-23T03:03:19;7.10;;;4.55;;
21303;SDS011;30547;52.384;9.744;2022-07-23T03:05:44;9.10;;;4.37;;
21303;SDS011;30547;52.384;9.744;2022-07-23T03:08:12;7.20;;;4.35;;
21303;SDS011;30547;52.384;9.744;2022-07-23T03:10:38;6.57;;;4.67;;
21303;SDS011;30547;52.384;9.744;2022-07-23T03:13:05;6.72;;;4.47;;
21303;SDS011;30547;52.384;9.744;2022-07-23T03:15:31;5.43;;;4.30;;
21303;SDS011;30547;52.384;9.744;2022-07-23T03:17:56;6.67;;;4.40;;
21303;SDS011;30547;52.384;9.744;2022-07-23T03:20:22;6.32;;;4.57;;
21303;SDS011;30547;52.384;9.744;2022-07-23T03:22:47;6.63;;;4.82;;
21303;SDS011;30547;52.384;9.744;2022-07-23T03:25:16;5.53;;;4.53;;
21303;SDS011;30547;52.384;9.744;2022-07-23T03:27:41;7.20;;;4.40;;
21303;SDS011;30547;52.384;9.744;2022-07-23T03:30:09;5.80;;;4.30;;
21303;SDS011;30547;52.384;9.744;2022-07-23T03:32:35;7.00;;;4.40;;
21303;SDS011;30547;52.384;9.744;2022-07-23T03:35:00;8.10;;;4.70;;
21303;SDS011;30547;52.384;9.744;2022-07-23T03:37:26;7.83;;;4.97;;
21303;SDS011;30547;52.384;9.744;2022-07-23T03:39:51;6.20;;;4.78;;
21303;SDS011;30547;52.384;9.744;2022-07-23T03:42:17;6.78;;;4.43;;
21303;SDS011;30547;52.384;9.744;2022-07-23T03:44:42;6.67;;;4.47;;
21303;SDS011;30547;52.384;9.744;2022-07-23T03:47:11;6.93;;;4.50;;
21303;SDS011;30547;52.384;9.744;2022-07-23T03:49:39;6.47;;;4.67;;
21303;SDS011;30547;52.384;9.744;2022-07-23T03:52:05;7.00;;;4.80;;
21303;SDS011;30547;52.384;9.744;2022-07-23T03:54:30;5.00;;;4.13;;
21303;SDS011;30547;52.384;9.744;2022-07-23T03:56:58;6.93;;;4.22;;
21303;SDS011;30547;52.384;9.744;2022-07-23T03:59:24;5.27;;;4.50;;
21303;SDS011;30547;52.384;9.744;2022-07-23T04:01:49;5.35;;;4.43;;
21303;SDS011;30547;52.384;9.744;2022-07-23T04:04:15;5.75;;;4.30;;
21303;SDS011;30547;52.384;9.744;2022-07-23T04:06:40;6.13;;;4.40;;
21303;SDS011;30547;52.384;9.744;2022-07-23T04:09:06;6.13;;;4.50;;
21303;SDS011;30547;52.384;9.744;2022-07-23T04:11:33;7.25;;;4.55;;
21303;SDS011;30547;52.384;9.744;2022-07-23T04:13:59;7.13;;;4.73;;
21303;SDS011;30547;52.384;9.744;2022-07-23T04:16:24;6.93;;;4.17;;
21303;SDS011;30547;52.384;9.744;2022-07-23T04:18:50;8.77;;;4.50;;
21303;SDS011;30547;52.384;9.744;2022-07-23T04:21:15;7.53;;;4.63;;
21303;SDS011;30547;52.384;9.744;2022-07-23T04:23:41;5.72;;;4.13;;
21303;SDS011;30547;52.384;9.744;2022-07-23T04:26:06;6.00;;;4.10;;
21303;SDS011;30547;52.384;9.744;2022-07-23T04:28:32;6.43;;;3.97;;
21303;SDS011;30547;52.384;9.744;2022-07-23T04:30:58;8.63;;;4.60;;
21303;SDS011;30547;52.384;9.744;2022-07-23T04:33:23;6.05;;;4.10;;
21303;SDS011;30547;52.384;9.744;2022-07-23T04:35:49;7.67;;;4.00;;
21303;SDS011;30547;52.384;9.744;2022-07-23T04:38:15;5.90;;;4.00;;
21303;SDS011;30547;52.384;9.744;2022-07-23T04:40:40;9.88;;;4.30;;
21303;SDS011;30547;52.384;9.744;2022-07-23T04:43:08;7.00;;;4.20;;
21303;SDS011;30547;52.384;9.744;2022-07-23T04:45:34;7.20;;;4.23;;
21303;SDS011;30547;52.384;9.744;2022-07-23T04:47:59;22.20;;;5.00;;
21303;SDS011;30547;52.384;9.744;2022-07-23T04:50:25;9.65;;;5.13;;
21303;SDS011;30547;52.384;9.744;2022-07-23T04:52:50;8.27;;;5.20;;
21303;SDS011;30547;52.384;9.744;2022-07-23T04:55:16;8.60;;;5.37;;
21303;SDS011;30547;52.384;9.744;2022-07-23T04:57:42;9.13;;;5.20;;
21303;SDS011;30547;52.384;9.744;2022-07-23T05:00:07;11.73;;;5.90;;
21303;SDS011;30547;52.384;9.744;2022-07-23T05:02:33;9.80;;;5.70;;
21303;SDS011;30547;52.384;9.744;2022-07-23T05:04:59;8.73;;;5.73;;
21303;SDS011;30547;52.384;9.744;2022-07-23T05:07:25;8.35;;;5.50;;
21303;SDS011;30547;52.384;9.744;2022-07-23T05:09:50;9.73;;;5.63;;
21303;SDS011;30547;52.384;9.744;2022-07-23T05:12:16;10.83;;;5.50;;
21303;SDS011;30547;52.384;9.744;2022-07-23T05:14:41;8.87;;;5.50;;
21303;SDS011;30547;52.384;9.744;2022-07-23T05:17:07;11.15;;;5.63;;
21303;SDS011;30547;52.384;9.744;2022-07-23T05:19:35;9.68;;;5.53;;
21303;SDS011;30547;52.384;9.744;2022-07-23T05:22:01;10.80;;;6.22;;
21303;SDS011;30547;52.384;9.744;2022-07-23T05:24:27;9.18;;;5.30;;
21303;SDS011;30547;52.384;9.744;2022-07-23T05:26:54;8.80;;;5.57;;
21303;SDS011;30547;52.384;9.744;2022-07-23T05:29:20;9.17;;;5.50;;
21303;SDS011;30547;52.384;9.744;2022-07-23T05:31:45;10.07;;;5.40;;
21303;SDS011;30547;52.384;9.744;2022-07-23T05:34:13;8.40;;;5.38;;
21303;SDS011;30547;52.384;9.744;2022-07-23T05:36:41;11.15;;;5.78;;
21303;SDS011;30547;52.384;9.744;2022-07-23T05:39:07;9.90;;;5.43;;
21303;SDS011;30547;52.384;9.744;2022-07-23T05:41:32;7.93;;;5.03;;
21303;SDS011;30547;52.384;9.744;2022-07-23T05:44:00;10.90;;;5.45;;
21303;SDS011;30547;52.384;9.744;2022-07-23T05:46:25;7.95;;;5.10;;
21303;SDS011;30547;52.384;9.744;2022-07-23T05:48:53;8.33;;;5.00;;
21303;SDS011;30547;52.384;9.744;2022-07-23T05:51:20;8.27;;;5.18;;
21303;SDS011;30547;52.384;9.744;2022-07-23T05:53:49;7.28;;;5.00;;
21303;SDS011;30547;52.384;9.744;2022-07-23T05:56:15;8.17;;;5.20;;
21303;SDS011;30547;52.384;9.744;2022-07-23T05:58:41;9.07;;;5.07;;
21303;SDS011;30547;52.384;9.744;2022-07-23T06:01:07;9.00;;;5.00;;
21303;SDS011;30547;52.384;9.744;2022-07-23T06:03:32;7.72;;;4.65;;
21303;SDS011;30547;52.384;9.744;2022-07-23T06:05:58;8.00;;;4.57;;
21303;SDS011;30547;52.384;9.744;2022-07-23T06:08:23;8.53;;;4.40;;
21303;SDS011;30547;52.384;9.744;2022-07-23T06:10:49;8.20;;;4.50;;
21303;SDS011;30547;52.384;9.744;2022-07-23T06:13:14;8.23;;;4.55;;
21303;SDS011;30547;52.384;9.744;2022-07-23T06:15:42;8.27;;;4.72;;
21303;SDS011;30547;52.384;9.744;2022-07-23T06:18:08;7.97;;;4.60;;
21303;SDS011;30547;52.384;9.744;2022-07-23T06:20:36;6.97;;;4.40;;
21303;SDS011;30547;52.384;9.744;2022-07-23T06:23:04;7.32;;;4.20;;
21303;SDS011;30547;52.384;9.744;2022-07-23T06:25:30;7.40;;;4.10;;
21303;SDS011;30547;52.384;9.744;2022-07-23T06:28:01;7.05;;;4.22;;
21303;SDS011;30547;52.384;9.744;2022-07-23T06:30:27;6.93;;;4.00;;
21303;SDS011;30547;52.384;9.744;2022-07-23T06:32:53;7.80;;;4.00;;
21303;SDS011;30547;52.384;9.744;2022-07-23T06:35:20;7.30;;;4.07;;
21303;SDS011;30547;52.384;9.744;2022-07-23T06:37:46;7.25;;;4.13;;
21303;SDS011;30547;52.384;9.744;2022-07-23T06:40:14;7.50;;;4.00;;
21303;SDS011;30547;52.384;9.744;2022-07-23T06:42:43;8.23;;;3.88;;
21303;SDS011;30547;52.384;9.744;2022-07-23T06:45:10;4.25;;;3.47;;
21303;SDS011;30547;52.384;9.744;2022-07-23T06:47:36;8.35;;;3.80;;
21303;SDS011;30547;52.384;9.744;2022-07-23T06:50:08;8.25;;;3.90;;
21303;SDS011;30547;52.384;9.744;2022-07-23T06:52:35;8.02;;;4.10;;
21303;SDS011;30547;52.384;9.744;2022-07-23T06:55:02;8.73;;;3.80;;
21303;SDS011;30547;52.384;9.744;2022-07-23T06:57:30;7.70;;;3.90;;
21303;SDS011;30547;52.384;9.744;2022-07-23T06:59:59;6.70;;;3.67;;
21303;SDS011;30547;52.384;9.744;2022-07-23T07:02:26;6.93;;;3.65;;
21303;SDS011;30547;52.384;9.744;2022-07-23T07:04:52;7.78;;;3.28;;
21303;SDS011;30547;52.384;9.744;2022-07-23T07:07:20;6.78;;;4.13;;
21303;SDS011;30547;52.384;9.744;2022-07-23T07:09:45;7.22;;;3.78;;
21303;SDS011;30547;52.384;9.744;2022-07-23T07:12:16;5.88;;;3.55;;
21303;SDS011;30547;52.384;9.744;2022-07-23T07:14:46;5.60;;;3.85;;
21303;SDS011;30547;52.384;9.744;2022-07-23T07:17:15;4.53;;;3.40;;
21303;SDS011;30547;52.384;9.744;2022-07-23T07:19:42;4.45;;;3.65;;
21303;SDS011;30547;52.384;9.744;2022-07-23T07:22:09;7.13;;;3.50;;
21303;SDS011;30547;52.384;9.744;2022-07-23T07:24:36;6.45;;;3.40;;
21303;SDS011;30547;52.384;9.744;2022-07-23T07:27:08;5.78;;;3.40;;
21303;SDS011;30547;52.384;9.744;2022-07-23T07:29:35;5.68;;;3.60;;
21303;SDS011;30547;52.384;9.744;2022-07-23T07:32:01;5.45;;;3.30;;
21303;SDS011;30547;52.384;9.744;2022-07-23T07:34:26;6.18;;;3.60;;
21303;SDS011;30547;52.384;9.744;2022-07-23T07:36:52;5.43;;;3.83;;
21303;SDS011;30547;52.384;9.744;2022-07-23T07:39:20;6.27;;;3.60;;
21303;SDS011;30547;52.384;9.744;2022-07-23T07:41:45;8.57;;;3.90;;
21303;SDS011;30547;52.384;9.744;2022-07-23T07:44:11;6.95;;;3.72;;
21303;SDS011;30547;52.384;9.744;2022-07-23T07:46:36;6.03;;;3.90;;
21303;SDS011;30547;52.384;9.744;2022-07-23T07:49:04;9.03;;;3.80;;
21303;SDS011;30547;52.384;9.744;2022-07-23T07:51:32;7.18;;;4.20;;
21303;SDS011;30547;52.384;9.744;2022-07-23T07:53:58;7.07;;;4.20;;
21303;SDS011;30547;52.384;9.744;2022-07-23T07:56:25;7.07;;;4.35;;
21303;SDS011;30547;52.384;9.744;2022-07-23T07:58:53;9.57;;;4.43;;
21303;SDS011;30547;52.384;9.744;2022-07-23T08:01:19;17.20;;;6.87;;
21303;SDS011;30547;52.384;9.744;2022-07-23T08:03:45;10.05;;;5.53;;
21303;SDS011;30547;52.384;9.744;2022-07-23T08:06:11;8.80;;;5.05;;
21303;SDS011;30547;52.384;9.744;2022-07-23T08:08:36;8.47;;;4.70;;
21303;SDS011;30547;52.384;9.744;2022-07-23T08:11:04;7.65;;;5.28;;
21303;SDS011;30547;52.384;9.744;2022-07-23T08:13:30;6.97;;;5.00;;
21303;SDS011;30547;52.384;9.744;2022-07-23T08:15:56;6.30;;;4.57;;
21303;SDS011;30547;52.384;9.744;2022-07-23T08:18:21;8.65;;;5.20;;
21303;SDS011;30547;52.384;9.744;2022-07-23T08:20:46;8.80;;;5.20;;
21303;SDS011;30547;52.384;9.744;2022-07-23T08:23:12;9.93;;;5.53;;
21303;SDS011;30547;52.384;9.744;2022-07-23T08:25:44;9.00;;;4.82;;
21303;SDS011;30547;52.384;9.744;2022-07-23T08:28:10;8.35;;;5.20;;
21303;SDS011;30547;52.384;9.744;2022-07-23T08:30:37;6.35;;;4.72;;
21303;SDS011;30547;52.384;9.744;2022-07-23T08:33:04;8.00;;;4.90;;
21303;SDS011;30547;52.384;9.744;2022-07-23T08:35:45;6.57;;;4.20;;
21303;SDS011;30547;52.384;9.744;2022-07-23T08:38:12;6.82;;;4.53;;
21303;SDS011;30547;52.384;9.744;2022-07-23T08:40:42;5.80;;;4.18;;
21303;SDS011;30547;52.384;9.744;2022-07-23T08:43:23;5.97;;;4.28;;
21303;SDS011;30547;52.384;9.744;2022-07-23T08:45:53;6.35;;;4.50;;
21303;SDS011;30547;52.384;9.744;2022-07-23T08:48:24;7.57;;;4.90;;
21303;SDS011;30547;52.384;9.744;2022-07-23T08:50:55;6.70;;;5.10;;
21303;SDS011;30547;52.384;9.744;2022-07-23T08:53:22;7.70;;;4.95;;
21303;SDS011;30547;52.384;9.744;2022-07-23T08:55:51;7.20;;;4.53;;
21303;SDS011;30547;52.384;9.744;2022-07-23T08:58:18;6.93;;;5.07;;
21303;SDS011;30547;52.384;9.744;2022-07-23T09:00:44;8.52;;;5.22;;
21303;SDS011;30547;52.384;9.744;2022-07-23T09:03:23;8.90;;;5.30;;
21303;SDS011;30547;52.384;9.744;2022-07-23T09:05:50;7.93;;;5.35;;
21303;SDS011;30547;52.384;9.744;2022-07-23T09:08:21;7.83;;;6.03;;
21303;SDS011;30547;52.384;9.744;2022-07-23T09:10:58;8.60;;;5.38;;
21303;SDS011;30547;52.384;9.744;2022-07-23T09:16:01;8.48;;;6.30;;
21303;SDS011;30547;52.384;9.744;2022-07-23T09:21:24;11.97;;;5.40;;
21303;SDS011;30547;52.384;9.744;2022-07-23T09:24:01;10.48;;;5.60;;
21303;SDS011;30547;52.384;9.744;2022-07-23T09:26:36;10.80;;;5.53;;
21303;SDS011;30547;52.384;9.744;2022-07-23T09:29:04;10.45;;;6.15;;
21303;SDS011;30547;52.384;9.744;2022-07-23T09:36:47;10.45;;;5.95;;
21303;SDS011;30547;52.384;9.744;2022-07-23T09:39:13;10.20;;;6.72;;
21303;SDS011;30547;52.384;9.744;2022-07-23T09:41:42;9.20;;;6.28;;
21303;SDS011;30547;52.384;9.744;2022-07-23T09:44:10;9.52;;;6.03;;
21303;SDS011;30547;52.384;9.744;2022-07-23T09:46:41;9.75;;;7.05;;
21303;SDS011;30547;52.384;9.744;2022-07-23T09:49:16;7.85;;;5.78;;
21303;SDS011;30547;52.384;9.744;2022-07-23T09:51:44;8.18;;;5.70;;
21303;SDS011;30547;52.384;9.744;2022-07-23T09:54:57;10.23;;;5.47;;
21303;SDS011;30547;52.384;9.744;2022-07-23T09:59:35;8.77;;;5.55;;
21303;SDS011;30547;52.384;9.744;2022-07-23T10:02:03;7.88;;;5.60;;
21303;SDS011;30547;52.384;9.744;2022-07-23T10:04:33;8.20;;;5.45;;
21303;SDS011;30547;52.384;9.744;2022-07-23T10:07:00;7.25;;;5.30;;
21303;SDS011;30547;52.384;9.744;2022-07-23T10:09:29;6.63;;;5.20;;
21303;SDS011;30547;52.384;9.744;2022-07-23T10:11:59;7.35;;;4.82;;
21303;SDS011;30547;52.384;9.744;2022-07-23T10:14:45;9.17;;;5.53;;
21303;SDS011;30547;52.384;9.744;2022-07-23T10:17:11;7.78;;;4.50;;
21303;SDS011;30547;52.384;9.744;2022-07-23T10:19:37;8.10;;;4.78;;
21303;SDS011;30547;52.384;9.744;2022-07-23T10:35:52;7.53;;;5.03;;
21303;SDS011;30547;52.384;9.744;2022-07-23T10:38:47;7.13;;;4.60;;
21303;SDS011;30547;52.384;9.744;2022-07-23T10:41:30;8.23;;;4.95;;
21303;SDS011;30547;52.384;9.744;2022-07-23T10:44:13;9.02;;;4.72;;
21303;SDS011;30547;52.384;9.744;2022-07-23T10:46:57;9.00;;;5.05;;
21303;SDS011;30547;52.384;9.744;2022-07-23T10:49:33;9.87;;;5.87;;
21303;SDS011;30547;52.384;9.744;2022-07-23T10:52:15;9.52;;;4.50;;
21303;SDS011;30547;52.384;9.744;2022-07-23T10:54:43;9.13;;;5.68;;
21303;SDS011;30547;52.384;9.744;2022-07-23T10:57:26;9.82;;;5.07;;
21303;SDS011;30547;52.384;9.744;2022-07-23T11:02:33;9.13;;;6.15;;
21303;SDS011;30547;52.384;9.744;2022-07-23T11:05:06;11.88;;;5.80;;
21303;SDS011;30547;52.384;9.744;2022-07-23T11:08:09;8.57;;;5.72;;
21303;SDS011;30547;52.384;9.744;2022-07-23T11:10:32;9.45;;;5.90;;
21303;SDS011;30547;52.384;9.744;2022-07-23T11:16:04;9.20;;;6.20;;
21303;SDS011;30547;52.384;9.744;2022-07-23T11:26:51;9.20;;;6.20;;
21303;SDS011;30547;52.384;9.744;2022-07-23T11:29:39;10.45;;;7.00;;
21303;SDS011;30547;52.384;9.744;2022-07-23T11:32:11;8.93;;;6.13;;
21303;SDS011;30547;52.384;9.744;2022-07-23T11:35:46;10.45;;;7.50;;
21303;SDS011;30547;52.384;9.744;2022-07-23T11:37:53;11.63;;;7.10;;
21303;SDS011;30547;52.384;9.744;2022-07-23T11:40:30;11.95;;;7.57;;
21303;SDS011;30547;52.384;9.744;2022-07-23T11:43:02;13.32;;;8.48;;
21303;SDS011;30547;52.384;9.744;2022-07-23T11:45:43;10.07;;;6.90;;
21303;SDS011;30547;52.384;9.744;2022-07-23T11:48:30;8.57;;;6.40;;
21303;SDS011;30547;52.384;9.744;2022-07-23T11:50:58;9.27;;;6.63;;
21303;SDS011;30547;52.384;9.744;2022-07-23T11:53:27;10.60;;;6.45;;
21303;SDS011;30547;52.384;9.744;2022-07-23T11:56:02;10.50;;;6.85;;
21303;SDS011;30547;52.384;9.744;2022-07-23T11:58:35;9.10;;;6.47;;
21303;SDS011;30547;52.384;9.744;2022-07-23T12:01:03;9.25;;;6.40;;
21303;SDS011;30547;52.384;9.744;2022-07-23T12:03:31;9.38;;;6.72;;
21303;SDS011;30547;52.384;9.744;2022-07-23T12:05:57;9.15;;;6.20;;
21303;SDS011;30547;52.384;9.744;2022-07-23T12:08:24;10.07;;;6.00;;
21303;SDS011;30547;52.384;9.744;2022-07-23T12:10:49;10.57;;;6.60;;
21303;SDS011;30547;52.384;9.744;2022-07-23T12:13:18;9.27;;;6.40;;
21303;SDS011;30547;52.384;9.744;2022-07-23T12:15:45;9.73;;;7.07;;
21303;SDS011;30547;52.384;9.744;2022-07-23T12:18:14;9.73;;;6.90;;
21303;SDS011;30547;52.384;9.744;2022-07-23T12:20:46;9.45;;;6.50;;
21303;SDS011;30547;52.384;9.744;2022-07-23T12:23:21;8.27;;;6.05;;
21303;SDS011;30547;52.384;9.744;2022-07-23T12:25:48;10.93;;;7.03;;
21303;SDS011;30547;52.384;9.744;2022-07-23T12:30:51;10.27;;;6.55;;
21303;SDS011;30547;52.384;9.744;2022-07-23T12:33:24;10.60;;;7.30;;
21303;SDS011;30547;52.384;9.744;2022-07-23T12:35:58;8.38;;;6.45;;
21303;SDS011;30547;52.384;9.744;2022-07-23T12:38:27;10.20;;;7.70;;
21303;SDS011;30547;52.384;9.744;2022-07-23T12:40:57;11.48;;;7.28;;
21303;SDS011;30547;52.384;9.744;2022-07-23T12:45:54;8.45;;;7.05;;
21303;SDS011;30547;52.384;9.744;2022-07-23T12:48:34;9.90;;;6.73;;
21303;SDS011;30547;52.384;9.744;2022-07-23T12:54:14;9.25;;;6.68;;
21303;SDS011;30547;52.384;9.744;2022-07-23T12:56:45;10.18;;;6.90;;
21303;SDS011;30547;52.384;9.744;2022-07-23T12:59:12;8.73;;;6.47;;
21303;SDS011;30547;52.384;9.744;2022-07-23T13:01:42;9.90;;;7.78;;
21303;SDS011;30547;52.384;9.744;2022-07-23T13:06:46;9.07;;;7.10;;
21303;SDS011;30547;52.384;9.744;2022-07-23T13:09:32;8.18;;;6.70;;
21303;SDS011;30547;52.384;9.744;2022-07-23T13:12:00;10.63;;;6.80;;
21303;SDS011;30547;52.384;9.744;2022-07-23T13:14:27;9.75;;;5.93;;
21303;SDS011;30547;52.384;9.744;2022-07-23T13:16:55;7.82;;;6.13;;
21303;SDS011;30547;52.384;9.744;2022-07-23T13:19:22;8.80;;;6.88;;
21303;SDS011;30547;52.384;9.744;2022-07-23T13:21:50;9.80;;;6.70;;
21303;SDS011;30547;52.384;9.744;2022-07-23T13:24:18;9.32;;;7.40;;
21303;SDS011;30547;52.384;9.744;2022-07-23T13:26:43;8.88;;;6.80;;
21303;SDS011;30547;52.384;9.744;2022-07-23T13:29:11;8.55;;;6.20;;
21303;SDS011;30547;52.384;9.744;2022-07-23T13:31:37;8.03;;;7.13;;
21303;SDS011;30547;52.384;9.744;2022-07-23T13:34:03;7.28;;;6.47;;
21303;SDS011;30547;52.384;9.744;2022-07-23T13:36:29;10.63;;;7.90;;
21303;SDS011;30547;52.384;9.744;2022-07-23T13:38:57;9.65;;;7.25;;
21303;SDS011;30547;52.384;9.744;2022-07-23T13:41:23;8.73;;;6.28;;
21303;SDS011;30547;52.384;9.744;2022-07-23T13:43:49;11.65;;;6.90;;
21303;SDS011;30547;52.384;9.744;2022-07-23T13:46:17;8.98;;;7.03;;
21303;SDS011;30547;52.384;9.744;2022-07-23T13:48:42;10.48;;;7.40;;
21303;SDS011;30547;52.384;9.744;2022-07-23T13:51:10;7.05;;;6.00;;
21303;SDS011;30547;52.384;9.744;2022-07-23T13:53:37;11.43;;;7.00;;
21303;SDS011;30547;52.384;9.744;2022-07-23T13:56:04;9.93;;;7.13;;
21303;SDS011;30547;52.384;9.744;2022-07-23T13:58:31;9.70;;;6.53;;
21303;SDS011;30547;52.384;9.744;2022-07-23T14:00:59;7.18;;;5.70;;
21303;SDS011;30547;52.384;9.744;2022-07-23T14:03:29;8.07;;;6.80;;
21303;SDS011;30547;52.384;9.744;2022-07-23T14:05:56;10.88;;;7.68;;
21303;SDS011;30547;52.384;9.744;2022-07-23T14:08:22;10.17;;;7.33;;
21303;SDS011;30547;52.384;9.744;2022-07-23T14:10:48;8.50;;;6.60;;
21303;SDS011;30547;52.384;9.744;2022-07-23T14:13:14;10.20;;;7.18;;
21303;SDS011;30547;52.384;9.744;2022-07-23T14:15:41;7.35;;;6.60;;
21303;SDS011;30547;52.384;9.744;2022-07-23T14:18:07;10.23;;;6.90;;
21303;SDS011;30547;52.384;9.744;2022-07-23T14:20:34;9.38;;;7.32;;
21303;SDS011;30547;52.384;9.744;2022-07-23T14:23:18;11.52;;;7.53;;
21303;SDS011;30547;52.384;9.744;2022-07-23T14:26:02;8.82;;;7.40;;
21303;SDS011;30547;52.384;9.744;2022-07-23T14:28:28;9.35;;;6.32;;
21303;SDS011;30547;52.384;9.744;2022-07-23T14:30:53;11.20;;;7.73;;
21303;SDS011;30547;52.384;9.744;2022-07-23T14:33:26;10.57;;;7.90;;
21303;SDS011;30547;52.384;9.744;2022-07-23T14:35:55;10.10;;;7.30;;
21303;SDS011;30547;52.384;9.744;2022-07-23T14:38:22;8.15;;;6.78;;
21303;SDS011;30547;52.384;9.744;2022-07-23T14:40:52;11.40;;;7.53;;
21303;SDS011;30547;52.384;9.744;2022-07-23T14:43:17;9.77;;;7.28;;
21303;SDS011;30547;52.384;9.744;2022-07-23T14:45:46;8.55;;;7.18;;
21303;SDS011;30547;52.384;9.744;2022-07-23T14:48:12;10.27;;;7.80;;
21303;SDS011;30547;52.384;9.744;2022-07-23T14:50:39;9.95;;;8.10;;
21303;SDS011;30547;52.384;9.744;2022-07-23T14:53:06;10.52;;;7.32;;
21303;SDS011;30547;52.384;9.744;2022-07-23T14:55:40;9.10;;;7.70;;
21303;SDS011;30547;52.384;9.744;2022-07-23T14:58:06;9.68;;;7.65;;
21303;SDS011;30547;52.384;9.744;2022-07-23T15:00:32;10.48;;;8.00;;
21303;SDS011;30547;52.384;9.744;2022-07-23T15:02:59;9.02;;;7.85;;
21303;SDS011;30547;52.384;9.744;2022-07-23T15:05:27;10.70;;;7.78;;
21303;SDS011;30547;52.384;9.744;2022-07-23T15:07:56;11.35;;;7.47;;
21303;SDS011;30547;52.384;9.744;2022-07-23T15:10:24;8.57;;;7.60;;
21303;SDS011;30547;52.384;9.744;2022-07-23T15:12:52;10.65;;;7.53;;
21303;SDS011;30547;52.384;9.744;2022-07-23T15:15:17;10.07;;;7.87;;
21303;SDS011;30547;52.384;9.744;2022-07-23T15:17:43;11.93;;;6.83;;
21303;SDS011;30547;52.384;9.744;2022-07-23T15:20:09;9.48;;;6.75;;
21303;SDS011;30547;52.384;9.744;2022-07-23T15:22:37;9.50;;;6.80;;
21303;SDS011;30547;52.384;9.744;2022-07-23T15:25:02;9.83;;;6.90;;
21303;SDS011;30547;52.384;9.744;2022-07-23T15:27:28;8.98;;;6.45;;
21303;SDS011;30547;52.384;9.744;2022-07-23T15:29:54;7.93;;;6.32;;
21303;SDS011;30547;52.384;9.744;2022-07-23T15:32:21;8.57;;;6.70;;
21303;SDS011;30547;52.384;9.744;2022-07-23T15:34:52;9.37;;;6.47;;
21303;SDS011;30547;52.384;9.744;2022-07-23T15:37:18;8.35;;;6.40;;
21303;SDS011;30547;52.384;9.744;2022-07-23T15:39:44;9.13;;;6.82;;
21303;SDS011;30547;52.384;9.744;2022-07-23T15:42:10;8.23;;;6.50;;
21303;SDS011;30547;52.384;9.744;2022-07-23T15:44:38;8.07;;;6.43;;